createdAt,value
2022-12-25T00:00:21.161Z,54.40
2022-12-25T00:01:44.934Z,53.50
2022-12-25T00:02:53.588Z,55.20
2022-12-25T00:03:56.657Z,50.90
2022-12-25T00:04:59.042Z,54.36
2022-12-25T00:06:01.274Z,52.10
2022-12-25T00:07:03.745Z,53.50
2022-12-25T00:08:06.247Z,51.60
2022-12-25T00:09:08.818Z,53.80
2022-12-25T00:10:11.882Z,51.36
2022-12-25T00:11:18.109Z,51.40
2022-12-25T00:12:21.841Z,52.90
2022-12-25T00:13:24.168Z,51.80
2022-12-25T00:14:26.202Z,52.40
2022-12-25T00:15:29.764Z,50.90
2022-12-25T00:16:33.552Z,51.50
2022-12-25T00:17:35.904Z,46.90
2022-12-25T00:18:38.040Z,51.50
2022-12-25T00:19:41.549Z,52.10
2022-12-25T00:20:44.386Z,47.30
2022-12-25T00:21:47.398Z,51.00
2022-12-25T00:22:49.472Z,51.45
2022-12-25T00:23:56.650Z,51.40
2022-12-25T00:24:59.179Z,49.30
2022-12-25T00:26:03.837Z,49.30
2022-12-25T00:27:06.569Z,35.40
2022-12-25T00:28:09.044Z,52.10
2022-12-25T00:29:13.355Z,48.90
2022-12-25T00:30:16.345Z,50.50
2022-12-25T00:31:18.974Z,50.10
2022-12-25T00:32:21.680Z,50.40
2022-12-25T00:33:25.494Z,49.30
2022-12-25T00:34:27.828Z,49.70
2022-12-25T00:35:30.345Z,48.60
2022-12-25T00:36:37.766Z,45.70
2022-12-25T00:37:36.700Z,48.10
2022-12-25T00:38:40.333Z,47.10
2022-12-25T00:39:42.492Z,48.50
2022-12-25T00:40:44.925Z,48.70
2022-12-25T00:42:05.349Z,48.20
2022-12-25T00:43:08.877Z,48.40
2022-12-25T00:44:13.224Z,47.30
2022-12-25T00:45:16.940Z,48.40
2022-12-25T00:46:19.336Z,46.00
2022-12-25T00:47:21.806Z,50.20
2022-12-25T00:48:29.030Z,48.60
2022-12-25T00:49:32.317Z,49.10
2022-12-25T00:50:37.339Z,50.60
2022-12-25T00:51:39.628Z,49.00
2022-12-25T00:52:41.818Z,48.40
2022-12-25T00:53:46.021Z,45.70
2022-12-25T00:54:48.235Z,44.70
2022-12-25T00:55:55.355Z,50.67
2022-12-25T00:56:57.590Z,49.40
2022-12-25T00:57:59.520Z,48.60
2022-12-25T00:59:02.706Z,50.11
2022-12-25T01:00:07.316Z,51.00
2022-12-25T01:01:13.401Z,48.30
2022-12-25T01:02:26.710Z,47.50
2022-12-25T01:03:31.135Z,47.50
2022-12-25T01:04:34.253Z,48.00
2022-12-25T01:05:37.332Z,48.09
2022-12-25T01:06:41.071Z,47.80
2022-12-25T01:07:43.815Z,47.10
2022-12-25T01:09:04.298Z,47.00
2022-12-25T01:10:24.403Z,46.20
2022-12-25T01:11:28.218Z,43.60
2022-12-25T01:12:32.828Z,46.80
2022-12-25T01:13:36.890Z,47.50
2022-12-25T01:14:39.305Z,44.70
2022-12-25T01:15:41.439Z,45.00
2022-12-25T01:16:44.317Z,46.50
2022-12-25T01:17:47.487Z,47.36
2022-12-25T01:18:50.181Z,47.18
2022-12-25T01:19:54.651Z,44.80
2022-12-25T01:21:07.044Z,44.20
2022-12-25T01:22:09.178Z,43.91
2022-12-25T01:23:11.426Z,42.80
2022-12-25T01:24:14.543Z,45.80
2022-12-25T01:25:16.574Z,44.30
2022-12-25T01:26:20.634Z,45.20
2022-12-25T01:27:22.915Z,42.80
2022-12-25T01:28:25.085Z,41.30
2022-12-25T01:29:27.581Z,44.50
2022-12-25T01:30:31.000Z,43.80
2022-12-25T01:31:35.201Z,44.20
2022-12-25T01:32:37.771Z,43.50
2022-12-25T01:33:41.793Z,41.40
2022-12-25T01:34:43.904Z,44.20
2022-12-25T01:35:46.636Z,41.80
2022-12-25T01:36:48.880Z,42.90
2022-12-25T01:37:51.611Z,41.80
2022-12-25T01:38:55.800Z,43.80
2022-12-25T01:39:58.316Z,39.90
2022-12-25T01:41:00.530Z,43.70
2022-12-25T01:42:03.636Z,40.10
2022-12-25T01:43:25.118Z,43.50
2022-12-25T01:44:40.267Z,41.10
2022-12-25T01:45:44.137Z,42.10
2022-12-25T01:46:48.384Z,38.10
2022-12-25T01:47:51.267Z,41.80
2022-12-25T01:48:58.885Z,41.73
2022-12-25T01:50:01.087Z,41.70
2022-12-25T01:51:07.745Z,42.80
2022-12-25T01:52:26.017Z,38.50
2022-12-25T01:53:29.009Z,41.80
2022-12-25T01:54:37.834Z,39.40
2022-12-25T01:55:43.177Z,38.90
2022-12-25T01:56:49.502Z,40.20
2022-12-25T01:57:51.765Z,40.90
2022-12-25T01:58:55.494Z,40.10
2022-12-25T02:00:00.154Z,36.60
2022-12-25T02:01:02.519Z,41.40
2022-12-25T02:02:05.559Z,39.90
2022-12-25T02:03:08.658Z,37.82
2022-12-25T02:04:38.201Z,39.82
2022-12-25T02:05:41.551Z,39.70
2022-12-25T02:06:44.362Z,29.90
2022-12-25T02:07:47.979Z,34.40
2022-12-25T02:08:51.715Z,40.00
2022-12-25T02:09:54.139Z,40.60
2022-12-25T02:10:56.646Z,38.10
2022-12-25T02:11:59.385Z,40.50
2022-12-25T02:13:04.925Z,38.10
2022-12-25T02:14:07.332Z,38.70
2022-12-25T02:15:13.533Z,40.60
2022-12-25T02:16:20.495Z,39.70
2022-12-25T02:17:51.919Z,38.30
2022-12-25T02:18:57.937Z,40.80
2022-12-25T02:20:20.786Z,38.70
2022-12-25T02:21:32.903Z,41.30
2022-12-25T02:23:08.472Z,41.10
2022-12-25T02:24:20.503Z,41.10
2022-12-25T02:25:29.851Z,38.80
2022-12-25T02:26:59.959Z,39.80
2022-12-25T02:28:11.658Z,38.10
2022-12-25T02:29:47.989Z,41.60
2022-12-25T02:30:57.721Z,37.50
2022-12-25T02:32:03.495Z,34.40
2022-12-25T02:33:27.618Z,35.50
2022-12-25T02:35:52.956Z,32.90
2022-12-25T02:37:06.704Z,37.00
2022-12-25T02:38:12.688Z,31.10
2022-12-25T02:39:55.489Z,36.50
2022-12-25T02:41:01.536Z,35.20
2022-12-25T02:42:07.499Z,38.20
2022-12-25T02:43:31.548Z,37.90
2022-12-25T02:44:55.096Z,36.30
2022-12-25T02:46:22.294Z,39.50
2022-12-25T02:47:37.231Z,38.90
2022-12-25T02:49:01.727Z,35.80
2022-12-25T02:50:24.744Z,35.80
2022-12-25T02:51:48.119Z,39.20
2022-12-25T02:53:12.008Z,39.70
2022-12-25T02:54:36.910Z,38.60
2022-12-25T02:56:00.323Z,41.50
2022-12-25T02:57:24.497Z,39.90
2022-12-25T02:58:47.090Z,38.20
2022-12-25T03:00:10.923Z,39.50
2022-12-25T03:01:35.736Z,39.60
2022-12-25T03:03:00.603Z,37.60
2022-12-25T03:04:26.156Z,34.20
2022-12-25T03:05:49.887Z,38.50
2022-12-25T03:07:05.359Z,39.40
2022-12-25T03:08:11.177Z,38.90
2022-12-25T03:09:39.215Z,38.80
2022-12-25T03:11:07.714Z,37.90
2022-12-25T03:12:21.832Z,39.20
2022-12-25T03:13:33.264Z,36.60
2022-12-25T03:14:54.368Z,37.60
2022-12-25T03:16:15.535Z,39.80
2022-12-25T03:17:18.219Z,36.90
2022-12-25T03:18:23.972Z,38.40
2022-12-25T03:19:51.456Z,38.00
2022-12-25T03:21:12.963Z,37.30
2022-12-25T03:22:37.300Z,36.10
2022-12-25T03:24:01.595Z,39.50
2022-12-25T03:25:23.058Z,39.50
2022-12-25T03:26:45.349Z,38.60
2022-12-25T03:27:53.130Z,35.30
2022-12-25T03:28:55.344Z,38.40
2022-12-25T03:30:16.303Z,36.10
2022-12-25T03:31:25.084Z,38.00
2022-12-25T03:32:40.307Z,39.40
2022-12-25T03:34:11.331Z,37.60
2022-12-25T03:35:29.492Z,37.10
2022-12-25T03:38:11.907Z,37.60
2022-12-25T03:39:22.776Z,37.50
2022-12-25T03:40:47.241Z,38.40
2022-12-25T03:42:12.402Z,35.80
2022-12-25T03:43:42.942Z,37.80
2022-12-25T03:45:26.079Z,40.10
2022-12-25T03:46:39.865Z,37.50
2022-12-25T03:47:47.742Z,37.40
2022-12-25T03:49:13.147Z,38.40
2022-12-25T03:50:39.163Z,38.70
2022-12-25T03:52:03.502Z,27.30
2022-12-25T03:53:28.201Z,39.60
2022-12-25T03:54:51.764Z,38.00
2022-12-25T03:56:14.320Z,37.70
2022-12-25T03:57:34.892Z,39.60
2022-12-25T03:58:55.943Z,37.50
2022-12-25T04:00:17.527Z,37.50
2022-12-25T04:01:39.691Z,35.80
2022-12-25T04:03:00.687Z,35.70
2022-12-25T04:04:21.676Z,38.90
2022-12-25T04:05:42.067Z,37.30
2022-12-25T04:07:03.102Z,37.20
2022-12-25T04:08:23.898Z,36.40
2022-12-25T04:09:44.726Z,37.00
2022-12-25T04:11:07.863Z,35.50
2022-12-25T04:12:28.681Z,36.90
2022-12-25T04:13:49.476Z,35.70
2022-12-25T04:15:10.434Z,36.73
2022-12-25T04:16:31.421Z,35.40
2022-12-25T04:17:52.353Z,36.50
2022-12-25T04:19:13.216Z,35.00
2022-12-25T04:20:33.947Z,34.10
2022-12-25T04:21:54.363Z,35.90
2022-12-25T04:23:15.447Z,34.20
2022-12-25T04:24:36.177Z,32.70
2022-12-25T04:25:56.472Z,32.80
2022-12-25T04:27:17.435Z,33.60
2022-12-25T04:28:37.831Z,31.30
2022-12-25T04:29:58.656Z,33.50
2022-12-25T04:31:05.995Z,36.80
2022-12-25T04:32:27.169Z,33.70
2022-12-25T04:33:47.913Z,29.70
2022-12-25T04:35:08.466Z,32.00
2022-12-25T04:36:12.146Z,33.20
2022-12-25T04:37:14.557Z,34.00
2022-12-25T04:38:18.469Z,27.40
2022-12-25T04:39:23.414Z,24.30
2022-12-25T04:40:25.861Z,31.60
2022-12-25T04:41:28.201Z,32.40
2022-12-25T04:42:30.330Z,32.10
2022-12-25T04:43:32.494Z,32.30
2022-12-25T04:44:35.554Z,33.60
2022-12-25T04:45:37.753Z,32.80
2022-12-25T04:46:40.015Z,31.90
2022-12-25T04:47:42.246Z,26.90
2022-12-25T04:48:44.366Z,33.30
2022-12-25T04:49:47.125Z,32.60
2022-12-25T04:50:49.901Z,33.50
2022-12-25T04:51:52.019Z,31.50
2022-12-25T04:52:54.269Z,33.10
2022-12-25T04:53:56.596Z,33.90
2022-12-25T04:54:58.617Z,32.80
2022-12-25T04:56:01.636Z,34.90
2022-12-25T04:57:04.259Z,32.10
2022-12-25T04:58:06.744Z,31.90
2022-12-25T04:59:08.959Z,34.20
2022-12-25T05:00:12.537Z,33.60
2022-12-25T05:01:16.183Z,30.64
2022-12-25T05:02:18.672Z,31.50
2022-12-25T05:03:21.099Z,32.50
2022-12-25T05:04:24.164Z,34.18
2022-12-25T05:05:26.623Z,33.50
2022-12-25T05:06:28.980Z,23.80
2022-12-25T05:07:32.706Z,32.22
2022-12-25T05:08:36.457Z,30.40
2022-12-25T05:09:40.699Z,32.80
2022-12-25T05:10:43.175Z,31.50
2022-12-25T05:11:45.398Z,29.70
2022-12-25T05:12:47.624Z,33.00
2022-12-25T05:13:49.863Z,31.90
2022-12-25T05:14:52.171Z,30.40
2022-12-25T05:15:54.345Z,32.70
2022-12-25T05:16:57.277Z,31.20
2022-12-25T05:17:59.505Z,27.50
2022-12-25T05:19:01.625Z,32.10
2022-12-25T05:20:05.681Z,32.90
2022-12-25T05:21:08.888Z,31.10
2022-12-25T05:22:11.078Z,30.50
2022-12-25T05:23:13.145Z,30.30
2022-12-25T05:24:15.253Z,33.22
2022-12-25T05:25:17.269Z,29.50
2022-12-25T05:26:22.525Z,32.10
2022-12-25T05:27:24.679Z,32.10
2022-12-25T05:28:26.721Z,31.40
2022-12-25T05:29:29.942Z,26.50
2022-12-25T05:30:33.504Z,31.30
2022-12-25T05:31:35.805Z,30.30
2022-12-25T05:32:39.044Z,29.40
2022-12-25T05:33:41.213Z,28.90
2022-12-25T05:34:43.320Z,29.00
2022-12-25T05:35:45.478Z,25.00
2022-12-25T05:36:47.673Z,31.20
2022-12-25T05:37:49.672Z,30.70
2022-12-25T05:38:51.720Z,26.22
2022-12-25T05:39:53.748Z,30.90
2022-12-25T05:40:55.865Z,33.90
2022-12-25T05:41:58.028Z,32.56
2022-12-25T05:43:00.326Z,30.90
2022-12-25T05:44:03.587Z,33.00
2022-12-25T05:45:07.002Z,34.90
2022-12-25T05:46:10.667Z,33.30
2022-12-25T05:47:13.200Z,30.90
2022-12-25T05:48:15.825Z,34.00
2022-12-25T05:49:17.944Z,30.20
2022-12-25T05:50:21.352Z,31.80
2022-12-25T05:51:24.636Z,33.90
2022-12-25T05:52:32.643Z,29.30
2022-12-25T05:53:36.463Z,27.20
2022-12-25T05:54:38.862Z,29.20
2022-12-25T05:55:46.223Z,32.80
2022-12-25T05:56:48.751Z,31.90
2022-12-25T05:57:52.218Z,28.80
2022-12-25T05:58:54.531Z,30.10
2022-12-25T05:59:57.428Z,29.10
2022-12-25T06:00:59.761Z,29.00
2022-12-25T06:02:01.977Z,29.20
2022-12-25T06:03:04.761Z,31.80
2022-12-25T06:04:12.154Z,29.80
2022-12-25T06:05:10.957Z,31.60
2022-12-25T06:06:15.326Z,29.40
2022-12-25T06:07:17.479Z,28.90
2022-12-25T06:08:20.309Z,27.50
2022-12-25T06:09:23.474Z,17.36
2022-12-25T06:10:25.857Z,29.00
2022-12-25T06:11:27.988Z,22.50
2022-12-25T06:12:30.128Z,27.20
2022-12-25T06:13:33.641Z,28.10
2022-12-25T06:14:36.187Z,24.70
2022-12-25T06:15:40.010Z,18.00
2022-12-25T06:16:42.691Z,27.30
2022-12-25T06:17:45.158Z,27.10
2022-12-25T06:18:51.485Z,25.30
2022-12-25T06:19:54.280Z,24.60
2022-12-25T06:20:56.706Z,26.60
2022-12-25T06:21:58.758Z,24.90
2022-12-25T06:23:01.912Z,27.80
2022-12-25T06:24:04.440Z,21.36
2022-12-25T06:25:07.992Z,27.00
2022-12-25T06:26:13.846Z,22.00
2022-12-25T06:27:15.965Z,24.30
2022-12-25T06:28:17.867Z,25.60
2022-12-25T06:29:22.365Z,24.60
2022-12-25T06:30:25.049Z,22.60
2022-12-25T06:31:27.449Z,24.60
2022-12-25T06:32:30.622Z,17.60
2022-12-25T06:33:33.009Z,23.00
2022-12-25T06:34:35.551Z,23.10
2022-12-25T06:35:39.752Z,25.00
2022-12-25T06:36:44.160Z,25.70
2022-12-25T06:37:46.842Z,24.00
2022-12-25T06:38:50.684Z,28.90
2022-12-25T06:39:52.878Z,23.80
2022-12-25T06:40:55.328Z,24.60
2022-12-25T06:41:57.640Z,22.80
2022-12-25T06:42:59.761Z,26.70
2022-12-25T06:44:02.022Z,24.10
2022-12-25T06:45:06.338Z,26.30
2022-12-25T06:46:12.358Z,24.00
2022-12-25T06:47:14.913Z,25.50
2022-12-25T06:48:16.870Z,23.60
2022-12-25T06:49:19.359Z,22.90
2022-12-25T06:50:21.445Z,23.10
2022-12-25T06:51:26.841Z,23.50
2022-12-25T06:52:34.705Z,23.10
2022-12-25T06:53:40.395Z,23.00
2022-12-25T06:54:43.040Z,7.30
2022-12-25T06:55:45.503Z,14.60
2022-12-25T06:56:48.217Z,23.00
2022-12-25T06:57:50.231Z,22.10
2022-12-25T06:58:55.363Z,19.70
2022-12-25T06:59:58.442Z,20.10
2022-12-25T07:01:04.831Z,16.40
2022-12-25T07:02:10.794Z,18.20
2022-12-25T07:03:16.874Z,17.70
2022-12-25T07:04:31.839Z,15.30
2022-12-25T07:05:34.636Z,7.10
2022-12-25T07:06:37.796Z,16.18
2022-12-25T07:07:39.964Z,16.40
2022-12-25T07:08:42.487Z,16.80
2022-12-25T07:09:45.500Z,18.90
2022-12-25T07:10:47.746Z,19.00
2022-12-25T07:11:49.856Z,17.50
2022-12-25T07:12:51.953Z,16.60
2022-12-25T07:13:54.542Z,12.78
2022-12-25T07:14:56.697Z,13.70
2022-12-25T07:16:00.826Z,16.50
2022-12-25T07:17:03.569Z,18.30
2022-12-25T07:18:06.754Z,15.40
2022-12-25T07:19:10.571Z,13.30
2022-12-25T07:20:12.846Z,13.80
2022-12-25T07:21:18.626Z,5.20
2022-12-25T07:22:22.092Z,13.20
2022-12-25T07:23:25.353Z,14.00
2022-12-25T07:24:27.541Z,12.90
2022-12-25T07:25:36.884Z,12.50
2022-12-25T07:26:34.300Z,12.80
2022-12-25T07:27:36.470Z,12.70
2022-12-25T07:28:40.403Z,12.20
2022-12-25T07:29:42.723Z,11.60
2022-12-25T07:30:44.831Z,11.30
2022-12-25T07:31:47.367Z,11.90
2022-12-25T07:32:51.135Z,10.70
2022-12-25T07:33:54.980Z,12.40
2022-12-25T07:34:57.626Z,9.60
2022-12-25T07:36:00.666Z,13.10
2022-12-25T07:37:02.984Z,11.80
2022-12-25T07:38:05.428Z,10.90
2022-12-25T07:39:09.920Z,11.00
2022-12-25T07:40:14.665Z,11.10
2022-12-25T07:41:17.325Z,13.00
2022-12-25T07:42:23.404Z,11.50
2022-12-25T07:43:23.617Z,12.30
2022-12-25T07:44:25.712Z,11.20
2022-12-25T07:45:27.954Z,9.80
2022-12-25T07:46:30.651Z,11.80
2022-12-25T07:47:32.830Z,10.80
2022-12-25T07:48:36.151Z,9.80
2022-12-25T07:49:38.216Z,11.30
2022-12-25T07:50:40.825Z,9.90
2022-12-25T07:51:42.836Z,12.60
2022-12-25T07:52:46.465Z,13.80
2022-12-25T07:53:50.851Z,7.90
2022-12-25T07:54:53.601Z,13.10
2022-12-25T07:56:05.199Z,14.45
2022-12-25T07:57:07.964Z,10.40
2022-12-25T07:58:10.936Z,11.20
2022-12-25T07:59:13.026Z,11.70
2022-12-25T08:00:16.937Z,11.40
2022-12-25T08:01:22.694Z,12.20
2022-12-25T08:02:28.591Z,12.50
2022-12-25T08:03:33.487Z,13.00
2022-12-25T08:04:36.054Z,13.60
2022-12-25T08:05:38.068Z,13.20
2022-12-25T08:06:40.746Z,13.50
2022-12-25T08:07:43.041Z,15.10
2022-12-25T08:08:45.284Z,13.90
2022-12-25T08:09:47.905Z,12.10
2022-12-25T08:10:50.125Z,12.90
2022-12-25T08:11:52.460Z,13.40
2022-12-25T08:12:56.463Z,12.50
2022-12-25T08:13:58.632Z,12.40
2022-12-25T08:15:00.672Z,12.70
2022-12-25T08:16:07.456Z,12.30
2022-12-25T08:17:09.564Z,12.30
2022-12-25T08:18:11.844Z,11.30
2022-12-25T08:19:14.502Z,12.00
2022-12-25T08:20:17.447Z,11.50
2022-12-25T08:21:20.049Z,14.10
2022-12-25T08:22:24.160Z,12.20
2022-12-25T08:23:26.852Z,11.30
2022-12-25T08:24:29.963Z,12.80
2022-12-25T08:25:32.894Z,10.80
2022-12-25T08:26:35.128Z,12.00
2022-12-25T08:27:37.437Z,12.50
2022-12-25T08:28:40.147Z,5.90
2022-12-25T08:29:45.171Z,11.20
2022-12-25T08:30:47.783Z,10.90
2022-12-25T08:31:49.969Z,12.90
2022-12-25T08:32:52.157Z,9.90
2022-12-25T08:33:57.173Z,11.80
2022-12-25T08:35:00.717Z,11.50
2022-12-25T08:36:04.896Z,6.60
2022-12-25T08:37:07.994Z,10.60
2022-12-25T08:38:10.437Z,10.30
2022-12-25T08:39:13.204Z,10.80
2022-12-25T08:40:15.579Z,10.00
2022-12-25T08:41:19.288Z,9.70
2022-12-25T08:42:21.342Z,11.10
2022-12-25T08:43:23.540Z,9.90
2022-12-25T08:44:26.755Z,7.70
2022-12-25T08:45:34.698Z,10.50
2022-12-25T08:46:33.268Z,12.00
2022-12-25T08:47:35.916Z,9.70
2022-12-25T08:48:40.024Z,10.00
2022-12-25T08:49:42.147Z,11.20
2022-12-25T08:50:46.539Z,11.60
2022-12-25T08:51:48.495Z,10.50
2022-12-25T08:52:50.576Z,13.00
2022-12-25T08:53:57.209Z,9.00
2022-12-25T08:55:01.432Z,11.10
2022-12-25T08:56:04.026Z,12.50
2022-12-25T08:57:06.515Z,11.00
2022-12-25T08:58:11.991Z,14.90
2022-12-25T08:59:14.772Z,12.70
2022-12-25T09:00:18.032Z,15.91
2022-12-25T09:01:20.401Z,13.90
2022-12-25T09:02:22.737Z,11.00
2022-12-25T09:03:26.781Z,13.60
2022-12-25T09:04:29.362Z,12.90
2022-12-25T09:05:36.207Z,15.40
2022-12-25T09:06:38.287Z,13.10
2022-12-25T09:07:40.401Z,14.30
2022-12-25T09:08:48.682Z,8.40
2022-12-25T09:09:48.792Z,12.30
2022-12-25T09:10:51.196Z,14.00
2022-12-25T09:11:54.640Z,15.50
2022-12-25T09:12:56.908Z,13.20
2022-12-25T09:14:00.546Z,14.40
2022-12-25T09:15:04.309Z,13.70
2022-12-25T09:16:10.761Z,11.60
2022-12-25T09:17:13.723Z,15.40
2022-12-25T09:18:15.923Z,13.64
2022-12-25T09:19:19.158Z,15.50
2022-12-25T09:20:21.662Z,15.60
2022-12-25T09:21:24.132Z,14.50
2022-12-25T09:22:26.470Z,13.30
2022-12-25T09:23:29.083Z,13.30
2022-12-25T09:24:32.332Z,13.10
2022-12-25T09:25:34.415Z,15.30
2022-12-25T09:26:38.655Z,14.60
2022-12-25T09:27:42.999Z,13.50
2022-12-25T09:28:51.201Z,11.40
2022-12-25T09:29:49.851Z,11.60
2022-12-25T09:30:54.177Z,14.82
2022-12-25T09:31:56.312Z,12.20
2022-12-25T09:32:59.511Z,8.30
2022-12-25T09:34:01.559Z,12.90
2022-12-25T09:35:03.937Z,13.80
2022-12-25T09:36:08.657Z,13.60
2022-12-25T09:37:11.128Z,12.80
2022-12-25T09:38:13.304Z,16.10
2022-12-25T09:39:16.571Z,14.10
2022-12-25T09:40:22.531Z,0.40
2022-12-25T09:41:41.131Z,14.00
2022-12-25T09:42:43.787Z,13.70
2022-12-25T09:44:04.837Z,14.10
2022-12-25T09:45:13.615Z,7.20
2022-12-25T09:46:22.985Z,14.60
2022-12-25T09:47:31.950Z,13.40
2022-12-25T09:48:37.901Z,12.80
2022-12-25T09:49:53.144Z,12.40
2022-12-25T09:51:05.536Z,13.10
2022-12-25T09:52:14.286Z,11.90
2022-12-25T09:53:24.201Z,12.90
2022-12-25T09:54:48.140Z,13.70
2022-12-25T09:56:07.009Z,14.50
2022-12-25T09:57:12.635Z,12.90
2022-12-25T09:58:15.492Z,13.70
2022-12-25T09:59:26.774Z,12.55
2022-12-25T10:00:43.339Z,11.40
2022-12-25T10:02:02.227Z,13.50
2022-12-25T10:03:11.962Z,11.80
2022-12-25T10:04:55.452Z,13.40
2022-12-25T10:06:29.128Z,11.70
2022-12-25T10:07:53.874Z,15.40
2022-12-25T10:10:38.379Z,12.30
2022-12-25T10:12:09.941Z,10.90
2022-12-25T10:13:48.275Z,13.20
2022-12-25T10:15:09.329Z,11.10
2022-12-25T10:16:39.835Z,0.90
2022-12-25T10:18:09.072Z,13.60
2022-12-25T10:19:36.630Z,10.40
2022-12-25T10:20:54.774Z,11.50
2022-12-25T10:22:00.679Z,13.70
2022-12-25T10:23:06.661Z,10.20
2022-12-25T10:24:27.856Z,12.00
2022-12-25T10:25:31.334Z,10.80
2022-12-25T10:26:34.926Z,10.70
2022-12-25T10:27:40.910Z,6.60
2022-12-25T10:28:53.174Z,10.00
2022-12-25T10:29:55.861Z,9.00
2022-12-25T10:31:04.279Z,10.10
2022-12-25T10:32:08.750Z,11.30
2022-12-25T10:33:17.047Z,12.60
2022-12-25T10:34:19.186Z,9.80
2022-12-25T10:35:25.031Z,9.70
2022-12-25T10:36:30.118Z,8.20
2022-12-25T10:37:32.966Z,8.70
2022-12-25T10:38:36.170Z,11.10
2022-12-25T10:39:45.856Z,8.70
2022-12-25T10:41:14.869Z,8.20
2022-12-25T10:42:38.703Z,5.90
2022-12-25T10:43:56.279Z,6.90
2022-12-25T10:45:01.817Z,7.50
2022-12-25T10:46:11.396Z,7.50
2022-12-25T10:47:18.399Z,7.90
2022-12-25T10:48:24.229Z,8.30
2022-12-25T10:49:30.304Z,5.20
2022-12-25T10:50:33.384Z,9.50
2022-12-25T10:51:37.853Z,8.27
2022-12-25T10:53:08.056Z,9.60
2022-12-25T10:54:29.709Z,8.70
2022-12-25T10:55:33.068Z,10.10
2022-12-25T10:56:35.219Z,7.20
2022-12-25T10:59:14.809Z,7.80
2022-12-25T11:00:23.924Z,6.80
2022-12-25T11:01:28.399Z,7.70
2022-12-25T11:02:37.886Z,8.40
2022-12-25T11:03:43.410Z,7.30
2022-12-25T11:04:46.516Z,7.70
2022-12-25T11:05:51.990Z,7.50
2022-12-25T11:07:06.940Z,8.50
2022-12-25T11:08:15.564Z,8.00
2022-12-25T11:09:18.388Z,6.60
2022-12-25T11:10:27.600Z,8.80
2022-12-25T11:11:30.655Z,7.90
2022-12-25T11:12:36.380Z,8.70
2022-12-25T11:13:48.655Z,6.40
2022-12-25T11:14:57.487Z,7.30
2022-12-25T11:16:06.263Z,7.40
2022-12-25T11:17:09.599Z,9.80
2022-12-25T11:18:27.309Z,9.60
2022-12-25T11:19:32.829Z,6.40
2022-12-25T11:20:36.742Z,7.60
2022-12-25T11:21:39.109Z,6.80
2022-12-25T11:22:45.011Z,6.80
2022-12-25T11:23:49.750Z,7.30
2022-12-25T11:24:52.059Z,6.40
2022-12-25T11:25:59.186Z,7.60
2022-12-25T11:27:05.820Z,9.00
2022-12-25T11:28:11.529Z,10.40
2022-12-25T11:29:18.518Z,9.20
2022-12-25T11:30:21.223Z,9.90
2022-12-25T11:31:27.135Z,7.10
2022-12-25T11:32:33.039Z,8.50
2022-12-25T11:33:38.989Z,10.70
2022-12-25T11:34:45.892Z,10.30
2022-12-25T11:35:52.457Z,13.40
2022-12-25T11:36:55.314Z,12.00
2022-12-25T11:37:57.729Z,12.73
2022-12-25T11:39:03.435Z,14.70
2022-12-25T11:40:08.717Z,15.00
2022-12-25T11:41:13.487Z,16.10
2022-12-25T11:42:34.807Z,14.30
2022-12-25T11:43:43.533Z,12.80
2022-12-25T11:45:05.113Z,12.80
2022-12-25T11:46:23.664Z,12.30
2022-12-25T11:47:32.621Z,13.90
2022-12-25T11:48:38.973Z,13.00
2022-12-25T11:50:00.534Z,13.00
2022-12-25T11:51:04.718Z,14.00
2022-12-25T11:52:11.540Z,13.40
2022-12-25T11:53:31.855Z,14.70
2022-12-25T11:54:37.864Z,14.50
2022-12-25T11:55:47.628Z,15.80
2022-12-25T11:56:51.553Z,14.20
2022-12-25T11:57:58.409Z,14.70
2022-12-25T11:59:07.253Z,14.60
2022-12-25T12:00:15.133Z,15.10
2022-12-25T12:01:51.028Z,15.00
2022-12-25T12:03:01.200Z,15.60
2022-12-25T12:04:10.822Z,13.50
2022-12-25T12:05:25.448Z,17.40
2022-12-25T12:07:01.341Z,14.80
2022-12-25T12:08:06.172Z,16.80
2022-12-25T12:09:20.751Z,16.70
2022-12-25T12:10:33.075Z,14.20
2022-12-25T12:11:38.990Z,14.00
2022-12-25T12:12:59.959Z,14.30
2022-12-25T12:14:37.023Z,17.30
2022-12-25T12:15:43.777Z,14.60
2022-12-25T12:16:46.992Z,16.40
2022-12-25T12:17:49.295Z,14.20
2022-12-25T12:18:52.208Z,16.60
2022-12-25T12:19:54.467Z,13.90
2022-12-25T12:21:06.174Z,15.10
2022-12-25T12:22:20.984Z,14.00
2022-12-25T12:23:23.718Z,14.40
2022-12-25T12:24:29.979Z,14.20
2022-12-25T12:25:36.732Z,15.60
2022-12-25T12:26:42.985Z,16.30
2022-12-25T12:27:45.480Z,13.70
2022-12-25T12:28:51.164Z,15.30
2022-12-25T12:29:57.721Z,14.30
2022-12-25T12:31:03.932Z,16.90
2022-12-25T12:32:09.887Z,17.40
2022-12-25T12:33:19.008Z,14.80
2022-12-25T12:34:25.135Z,17.20
2022-12-25T12:35:36.667Z,18.60
2022-12-25T12:36:39.807Z,19.10
2022-12-25T12:37:46.585Z,16.55
2022-12-25T12:38:49.516Z,20.10
2022-12-25T12:39:56.167Z,17.82
2022-12-25T12:41:06.505Z,17.90
2022-12-25T12:43:38.445Z,13.00
2022-12-25T12:44:42.760Z,16.40
2022-12-25T12:45:45.536Z,17.50
2022-12-25T12:46:57.372Z,14.60
2022-12-25T12:47:59.634Z,15.60
2022-12-25T12:49:27.144Z,16.00
2022-12-25T12:50:35.814Z,14.40
2022-12-25T12:51:38.568Z,15.20
2022-12-25T12:52:42.070Z,16.60
2022-12-25T12:53:44.460Z,14.60
2022-12-25T12:54:55.469Z,16.50
2022-12-25T12:56:12.379Z,14.30
2022-12-25T12:57:28.612Z,16.60
2022-12-25T12:58:33.280Z,17.40
2022-12-25T12:59:47.729Z,13.70
2022-12-25T13:01:10.540Z,16.10
2022-12-25T13:02:29.584Z,14.20
2022-12-25T13:03:52.689Z,13.00
2022-12-25T13:05:07.971Z,14.40
2022-12-25T13:06:31.092Z,16.10
2022-12-25T13:07:45.682Z,15.00
2022-12-25T13:08:51.459Z,14.70
2022-12-25T13:10:15.660Z,15.30
2022-12-25T13:11:21.493Z,12.60
2022-12-25T13:12:25.670Z,12.50
2022-12-25T13:13:36.808Z,13.10
2022-12-25T13:14:42.612Z,18.10
2022-12-25T13:15:47.690Z,14.80
2022-12-25T13:16:53.700Z,15.20
2022-12-25T13:18:02.386Z,15.80
2022-12-25T13:19:09.200Z,16.60
2022-12-25T13:20:15.339Z,12.20
2022-12-25T13:21:21.032Z,13.80
2022-12-25T13:22:26.867Z,16.00
2022-12-25T13:23:35.369Z,15.30
2022-12-25T13:24:37.775Z,14.70
2022-12-25T13:25:39.845Z,14.10
2022-12-25T13:26:42.141Z,13.80
2022-12-25T13:27:44.469Z,13.80
2022-12-25T13:28:46.986Z,13.00
2022-12-25T13:29:49.296Z,14.90
2022-12-25T13:30:54.194Z,14.70
2022-12-25T13:31:58.473Z,15.20
2022-12-25T13:33:01.008Z,13.00
2022-12-25T13:34:20.168Z,14.90
2022-12-25T13:35:23.240Z,13.20
2022-12-25T13:36:28.426Z,14.70
2022-12-25T13:37:32.383Z,14.80
2022-12-25T13:38:35.211Z,15.80
2022-12-25T13:39:43.241Z,15.45
2022-12-25T13:41:12.801Z,14.40
2022-12-25T13:42:20.037Z,17.60
2022-12-25T13:43:23.399Z,14.80
2022-12-25T13:44:28.965Z,15.00
2022-12-25T13:45:33.051Z,13.80
2022-12-25T13:46:35.303Z,16.00
2022-12-25T13:47:43.649Z,14.50
2022-12-25T13:48:49.429Z,15.50
2022-12-25T13:49:54.873Z,14.50
2022-12-25T13:51:00.102Z,15.20
2022-12-25T13:52:18.550Z,15.50
2022-12-25T13:53:22.342Z,16.60
2022-12-25T13:54:26.281Z,15.70
2022-12-25T13:55:30.486Z,15.10
2022-12-25T13:56:34.506Z,15.60
2022-12-25T13:57:43.119Z,14.30
2022-12-25T13:58:47.986Z,17.10
2022-12-25T13:59:51.456Z,15.00
2022-12-25T14:00:58.095Z,17.70
2022-12-25T14:02:01.244Z,17.00
2022-12-25T14:03:10.646Z,14.50
2022-12-25T14:04:21.647Z,16.80
2022-12-25T14:05:32.406Z,26.00
2022-12-25T14:06:34.482Z,28.60
2022-12-25T14:07:37.169Z,24.73
2022-12-25T14:08:40.769Z,23.90
2022-12-25T14:09:43.163Z,23.70
2022-12-25T14:10:49.882Z,22.10
2022-12-25T14:11:53.246Z,16.30
2022-12-25T14:12:59.736Z,16.30
2022-12-25T14:14:05.618Z,17.50
2022-12-25T14:15:11.502Z,18.10
2022-12-25T14:16:19.483Z,14.60
2022-12-25T14:17:23.226Z,19.80
2022-12-25T14:18:26.952Z,16.90
2022-12-25T14:19:34.992Z,17.55
2022-12-25T14:20:43.847Z,15.90
2022-12-25T14:21:48.644Z,16.30
2022-12-25T14:22:53.344Z,17.20
2022-12-25T14:23:55.823Z,15.20
2022-12-25T14:24:57.950Z,17.10
2022-12-25T14:26:01.077Z,18.50
2022-12-25T14:27:07.616Z,17.40
2022-12-25T14:28:20.222Z,16.30
2022-12-25T14:29:28.200Z,13.50
2022-12-25T14:30:29.531Z,16.40
2022-12-25T14:31:33.250Z,15.70
2022-12-25T14:32:39.177Z,15.10
2022-12-25T14:33:43.194Z,16.80
2022-12-25T14:34:49.407Z,15.30
2022-12-25T14:35:53.449Z,14.40
2022-12-25T14:36:56.295Z,17.60
2022-12-25T14:37:59.926Z,17.10
2022-12-25T14:39:05.543Z,15.90
2022-12-25T14:40:27.583Z,17.30